Time;durP1;ratioP1;P1;durP2;ratioP2;P2;SDS_P1;SDS_P2;PMS_P1;PMS_P2;Temp;Humidity;BMP_temperature;BMP_pressure;BME280_temperature;BME280_humidity;BME280_pressure;Samples;Min_cycle;Max_cycle;Signal;HPM_P1;HPM_P2
2024/04/04 00:00:16;;;;;;;0.20;0.10;;;;;;;;;;5132438;27;20185;-66
2024/04/04 00:02:42;;;;;;;0.20;0.10;;;;;;;;;;5132872;27;20216;-66
2024/04/04 00:05:09;;;;;;;0.20;0.10;;;;;;;;;;5132151;27;20173;-67
2024/04/04 00:07:35;;;;;;;0.20;0.10;;;;;;;;;;5132029;27;20710;-66
2024/04/04 00:10:01;;;;;;;0.20;0.10;;;;;;;;;;5128666;27;20267;-66
2024/04/04 00:12:27;;;;;;;0.20;0.10;;;;;;;;;;5135948;27;20290;-66
2024/04/04 00:14:53;;;;;;;0.20;0.10;;;;;;;;;;5132346;27;20181;-66
2024/04/04 00:17:19;;;;;;;0.20;0.10;;;;;;;;;;5142624;27;20191;-67
2024/04/04 00:19:45;;;;;;;0.20;0.10;;;;;;;;;;5132268;27;20245;-66
2024/04/04 00:22:12;;;;;;;0.20;0.10;;;;;;;;;;5131526;27;20265;-65
2024/04/04 00:24:38;;;;;;;0.20;0.10;;;;;;;;;;5138256;27;20184;-65
2024/04/04 00:27:04;;;;;;;0.20;0.10;;;;;;;;;;5132405;27;20179;-66
2024/04/04 00:29:30;;;;;;;0.20;0.10;;;;;;;;;;5132165;27;20874;-66
2024/04/04 00:31:56;;;;;;;0.20;0.10;;;;;;;;;;5131693;27;20212;-66
2024/04/04 00:34:22;;;;;;;0.20;0.10;;;;;;;;;;5113951;27;20181;-66
2024/04/04 00:36:48;;;;;;;0.20;0.10;;;;;;;;;;5133350;27;20195;-66
2024/04/04 00:39:14;;;;;;;0.20;0.10;;;;;;;;;;5131996;27;20263;-66
2024/04/04 00:41:41;;;;;;;0.20;0.10;;;;;;;;;;5131411;27;20209;-66
2024/04/04 00:44:07;;;;;;;0.20;0.10;;;;;;;;;;5114021;27;20173;-67
2024/04/04 00:46:33;;;;;;;0.20;0.10;;;;;;;;;;5131889;27;20177;-65
2024/04/04 00:49:00;;;;;;;0.20;0.10;;;;;;;;;;5125493;27;20177;-67
2024/04/04 00:51:27;;;;;;;0.20;0.10;;;;;;;;;;5130733;27;20200;-65
2024/04/04 00:53:53;;;;;;;0.20;0.10;;;;;;;;;;5130864;27;20192;-65
2024/04/04 00:56:20;;;;;;;0.20;0.10;;;;;;;;;;5131544;27;20176;-66
2024/04/04 00:58:47;;;;;;;0.20;0.10;;;;;;;;;;5130983;27;20179;-65
2024/04/04 01:01:13;;;;;;;0.20;0.10;;;;;;;;;;5131049;27;20579;-66
2024/04/04 01:03:39;;;;;;;0.20;0.10;;;;;;;;;;5131283;27;20270;-66
2024/04/04 01:06:05;;;;;;;0.20;0.10;;;;;;;;;;5130910;27;20209;-67
2024/04/04 01:08:33;;;;;;;0.20;0.10;;;;;;;;;;5131245;27;20592;-66
2024/04/04 01:10:59;;;;;;;0.20;0.10;;;;;;;;;;5130780;27;20189;-66
2024/04/04 01:13:25;;;;;;;0.20;0.10;;;;;;;;;;5131369;27;20301;-66
2024/04/04 01:15:51;;;;;;;0.20;0.10;;;;;;;;;;5137592;27;20632;-66
2024/04/04 01:18:19;;;;;;;0.20;0.10;;;;;;;;;;5130111;27;20229;-67
2024/04/04 01:20:45;;;;;;;0.20;0.10;;;;;;;;;;5115547;27;20168;-66
2024/04/04 01:23:11;;;;;;;0.20;0.10;;;;;;;;;;5131599;27;20205;-67
2024/04/04 01:25:37;;;;;;;0.20;0.10;;;;;;;;;;5129528;27;20173;-66
2024/04/04 01:28:03;;;;;;;0.20;0.10;;;;;;;;;;5131000;27;20185;-67
2024/04/04 01:30:29;;;;;;;0.20;0.10;;;;;;;;;;5129938;27;20808;-66
2024/04/04 01:32:55;;;;;;;0.20;0.10;;;;;;;;;;5118918;27;20193;-66
2024/04/04 01:35:21;;;;;;;0.20;0.10;;;;;;;;;;5128475;27;20802;-66
2024/04/04 01:37:47;;;;;;;0.20;0.10;;;;;;;;;;5111908;27;20181;-66
2024/04/04 01:40:13;;;;;;;0.20;0.10;;;;;;;;;;5130495;27;20181;-66
2024/04/04 01:42:39;;;;;;;0.20;0.10;;;;;;;;;;5129423;27;20216;-66
2024/04/04 01:45:05;;;;;;;0.20;0.10;;;;;;;;;;5130316;27;20251;-66
2024/04/04 01:47:31;;;;;;;0.20;0.10;;;;;;;;;;5123164;27;20180;-67
2024/04/04 01:49:57;;;;;;;0.20;0.10;;;;;;;;;;5111942;27;20189;-66
2024/04/04 01:52:23;;;;;;;0.20;0.10;;;;;;;;;;5128690;27;20201;-66
2024/04/04 01:54:48;;;;;;;0.20;0.10;;;;;;;;;;5123232;27;20203;-67
2024/04/04 01:57:15;;;;;;;0.20;0.10;;;;;;;;;;5126998;27;20179;-66
2024/04/04 01:59:40;;;;;;;0.20;0.10;;;;;;;;;;5130298;27;20181;-66
2024/04/04 02:02:07;;;;;;;0.20;0.08;;;;;;;;;;5129576;27;20280;-66
2024/04/04 02:04:33;;;;;;;0.20;0.10;;;;;;;;;;5130490;27;20175;-66
2024/04/04 02:06:59;;;;;;;0.20;0.10;;;;;;;;;;5129952;27;20863;-67
2024/04/04 02:09:25;;;;;;;0.20;0.10;;;;;;;;;;5129763;27;20169;-66
2024/04/04 02:11:51;;;;;;;0.20;0.10;;;;;;;;;;5130847;27;20686;-66
2024/04/04 02:14:17;;;;;;;0.20;0.10;;;;;;;;;;5119399;27;20260;-67
2024/04/04 02:16:44;;;;;;;0.20;0.10;;;;;;;;;;5130366;27;20268;-66
2024/04/04 02:19:10;;;;;;;0.20;0.10;;;;;;;;;;5133583;27;20164;-65
2024/04/04 02:21:36;;;;;;;0.20;0.08;;;;;;;;;;5115356;28;20216;-65
2024/04/04 02:24:02;;;;;;;0.20;0.10;;;;;;;;;;5126500;27;20195;-65
2024/04/04 02:26:28;;;;;;;0.20;0.10;;;;;;;;;;5128793;27;20165;-66
2024/04/04 02:28:54;;;;;;;0.20;0.10;;;;;;;;;;5111460;27;20188;-66
2024/04/04 02:31:20;;;;;;;0.20;0.10;;;;;;;;;;5129846;27;20201;-65
2024/04/04 02:33:46;;;;;;;0.20;0.10;;;;;;;;;;5129040;27;20181;-66
2024/04/04 02:36:13;;;;;;;0.20;0.10;;;;;;;;;;5130060;27;20228;-66
2024/04/04 02:38:39;;;;;;;0.20;0.10;;;;;;;;;;5131802;27;20201;-65
2024/04/04 02:41:05;;;;;;;0.20;0.10;;;;;;;;;;5129643;27;20680;-66
2024/04/04 02:43:31;;;;;;;0.20;0.10;;;;;;;;;;5131554;27;20169;-66
2024/04/04 02:46:01;;;;;;;0.20;0.10;;;;;;;;;;5133045;27;20177;-66
2024/04/04 02:48:27;;;;;;;0.20;0.10;;;;;;;;;;5134615;27;20273;-66
2024/04/04 02:50:54;;;;;;;0.20;0.10;;;;;;;;;;5133331;27;20189;-66
2024/04/04 02:53:20;;;;;;;0.20;0.10;;;;;;;;;;5134661;27;20222;-66
2024/04/04 02:55:53;;;;;;;0.20;0.10;;;;;;;;;;5135714;27;20629;-66
2024/04/04 02:58:19;;;;;;;0.20;0.10;;;;;;;;;;5134249;27;20224;-65
2024/04/04 03:00:45;;;;;;;0.20;0.10;;;;;;;;;;5129736;27;20209;-65
2024/04/04 03:03:11;;;;;;;0.20;0.10;;;;;;;;;;5132871;27;20201;-66
2024/04/04 03:05:41;;;;;;;0.20;0.10;;;;;;;;;;5133371;27;20797;-66
2024/04/04 03:08:07;;;;;;;0.20;0.10;;;;;;;;;;5133397;27;20252;-66
2024/04/04 03:10:33;;;;;;;0.20;0.10;;;;;;;;;;5140774;27;20624;-66
2024/04/04 03:12:59;;;;;;;0.20;0.10;;;;;;;;;;5133278;27;20216;-67
2024/04/04 03:15:25;;;;;;;0.20;0.10;;;;;;;;;;5133296;27;20261;-67
2024/04/04 03:17:51;;;;;;;0.20;0.10;;;;;;;;;;5133297;27;20204;-66
2024/04/04 03:20:17;;;;;;;0.20;0.10;;;;;;;;;;5132641;27;20856;-66
2024/04/04 03:22:43;;;;;;;0.20;0.10;;;;;;;;;;5129704;27;20205;-66
2024/04/04 03:25:10;;;;;;;0.20;0.10;;;;;;;;;;5112348;27;20611;-65
2024/04/04 03:27:36;;;;;;;0.20;0.10;;;;;;;;;;5134255;27;20177;-67
2024/04/04 03:30:02;;;;;;;0.20;0.10;;;;;;;;;;5133441;27;20828;-67
2024/04/04 03:32:28;;;;;;;0.20;0.10;;;;;;;;;;5130693;27;20192;-66
2024/04/04 03:34:54;;;;;;;0.20;0.10;;;;;;;;;;5133034;27;20185;-66
2024/04/04 03:37:20;;;;;;;0.20;0.10;;;;;;;;;;5132986;27;20923;-66
2024/04/04 03:39:46;;;;;;;0.20;0.10;;;;;;;;;;5132800;27;20268;-66
2024/04/04 03:42:12;;;;;;;0.20;0.10;;;;;;;;;;5128678;27;20260;-65
2024/04/04 03:44:38;;;;;;;0.20;0.10;;;;;;;;;;5128458;27;20749;-66
2024/04/04 03:47:04;;;;;;;0.20;0.10;;;;;;;;;;5132458;27;20176;-66
2024/04/04 03:49:30;;;;;;;0.20;0.10;;;;;;;;;;5133117;27;20356;-66
2024/04/04 03:51:56;;;;;;;0.20;0.10;;;;;;;;;;5128344;27;20249;-66
2024/04/04 03:54:22;;;;;;;0.20;0.10;;;;;;;;;;5131165;27;20767;-66
2024/04/04 03:56:48;;;;;;;0.20;0.10;;;;;;;;;;5132891;27;20173;-66
2024/04/04 03:59:14;;;;;;;0.20;0.10;;;;;;;;;;5146705;27;20532;-65
2024/04/04 04:01:40;;;;;;;0.20;0.10;;;;;;;;;;5133085;27;20204;-67
2024/04/04 04:04:06;;;;;;;0.20;0.10;;;;;;;;;;5132453;27;20181;-66
2024/04/04 04:06:32;;;;;;;0.20;0.10;;;;;;;;;;5136953;27;20169;-67
2024/04/04 04:08:58;;;;;;;0.20;0.10;;;;;;;;;;5132439;27;20709;-66
2024/04/04 04:11:24;;;;;;;0.20;0.10;;;;;;;;;;5134057;27;20200;-66
2024/04/04 04:13:50;;;;;;;0.20;0.10;;;;;;;;;;5136175;27;20212;-67
2024/04/04 04:16:16;;;;;;;0.20;0.10;;;;;;;;;;5136452;27;20180;-67
2024/04/04 04:18:42;;;;;;;0.20;0.10;;;;;;;;;;5143761;27;20184;-67
2024/04/04 04:21:17;;;;;;;0.20;0.10;;;;;;;;;;5134165;27;20660;-65
2024/04/04 04:23:43;;;;;;;0.20;0.10;;;;;;;;;;5116668;27;20173;-66
2024/04/04 04:26:09;;;;;;;0.20;0.10;;;;;;;;;;5137138;27;20276;-65
2024/04/04 04:28:35;;;;;;;0.20;0.10;;;;;;;;;;5136662;27;20192;-66
2024/04/04 04:31:03;;;;;;;0.20;0.10;;;;;;;;;;5138503;27;20735;-66
2024/04/04 04:33:29;;;;;;;0.20;0.10;;;;;;;;;;5137042;27;20165;-66
2024/04/04 04:35:55;;;;;;;0.20;0.10;;;;;;;;;;5136825;27;20177;-67
2024/04/04 04:38:21;;;;;;;0.20;0.10;;;;;;;;;;5129674;27;20173;-66
2024/04/04 04:40:51;;;;;;;0.20;0.10;;;;;;;;;;5133476;27;20180;-66
2024/04/04 04:43:17;;;;;;;0.20;0.10;;;;;;;;;;5131758;27;20238;-66
2024/04/04 04:45:43;;;;;;;0.20;0.10;;;;;;;;;;5131365;27;20173;-66
2024/04/04 04:48:09;;;;;;;0.20;0.10;;;;;;;;;;5131287;27;20173;-66
2024/04/04 04:50:35;;;;;;;0.20;0.10;;;;;;;;;;5134409;27;20203;-65
2024/04/04 04:53:01;;;;;;;0.20;0.10;;;;;;;;;;5129494;27;20718;-66
2024/04/04 04:55:27;;;;;;;0.20;0.10;;;;;;;;;;5135892;27;20207;-65
2024/04/04 04:57:53;;;;;;;0.20;0.10;;;;;;;;;;5125142;27;20184;-65
2024/04/04 05:00:22;;;;;;;0.20;0.10;;;;;;;;;;5130824;27;20255;-66
2024/04/04 05:02:51;;;;;;;0.20;0.08;;;;;;;;;;5127599;27;20312;-65
2024/04/04 05:05:19;;;;;;;0.20;0.10;;;;;;;;;;5130773;27;20173;-67
2024/04/04 05:07:45;;;;;;;0.20;0.10;;;;;;;;;;5131471;27;20164;-64
2024/04/04 05:10:11;;;;;;;0.20;0.08;;;;;;;;;;5130807;27;20168;-66
2024/04/04 05:12:37;;;;;;;0.20;0.10;;;;;;;;;;5131205;27;20193;-66
2024/04/04 05:15:03;;;;;;;0.20;0.10;;;;;;;;;;5130784;27;20208;-66
2024/04/04 05:17:30;;;;;;;0.20;0.10;;;;;;;;;;5130670;27;20185;-66
2024/04/04 05:19:56;;;;;;;0.20;0.10;;;;;;;;;;5130720;27;20173;-66
2024/04/04 05:22:21;;;;;;;0.20;0.10;;;;;;;;;;5124756;27;20231;-66
2024/04/04 05:24:47;;;;;;;0.20;0.10;;;;;;;;;;5125486;27;20180;-65
2024/04/04 05:27:13;;;;;;;0.20;0.10;;;;;;;;;;5121803;27;20179;-66
2024/04/04 05:29:39;;;;;;;0.20;0.10;;;;;;;;;;5125548;27;20555;-66
2024/04/04 05:32:06;;;;;;;0.20;0.10;;;;;;;;;;5125028;27;20207;-66
2024/04/04 05:34:32;;;;;;;0.20;0.10;;;;;;;;;;5130383;27;20279;-66
2024/04/04 05:36:58;;;;;;;0.20;0.10;;;;;;;;;;5140659;27;20184;-66
2024/04/04 05:39:25;;;;;;;0.20;0.10;;;;;;;;;;5125430;27;20184;-66
2024/04/04 05:41:52;;;;;;;0.20;0.10;;;;;;;;;;5106382;27;20893;-66
2024/04/04 05:44:18;;;;;;;0.20;0.10;;;;;;;;;;5108338;27;21102;-65
2024/04/04 05:46:46;;;;;;;0.20;0.10;;;;;;;;;;5124914;27;20245;-66
2024/04/04 05:49:12;;;;;;;0.20;0.10;;;;;;;;;;5126637;27;20520;-65
2024/04/04 05:51:38;;;;;;;0.20;0.10;;;;;;;;;;5123946;27;20773;-66
2024/04/04 05:54:04;;;;;;;0.20;0.05;;;;;;;;;;5126267;27;20189;-66
2024/04/04 05:56:30;;;;;;;0.20;0.10;;;;;;;;;;5124987;27;20288;-66
2024/04/04 05:58:56;;;;;;;0.20;0.10;;;;;;;;;;5125558;27;20686;-66
2024/04/04 06:01:23;;;;;;;0.20;0.10;;;;;;;;;;5126110;27;20212;-65
2024/04/04 06:03:49;;;;;;;0.20;0.10;;;;;;;;;;5121738;27;20650;-66
2024/04/04 06:06:15;;;;;;;0.20;0.10;;;;;;;;;;5129382;27;20181;-65
2024/04/04 06:08:41;;;;;;;0.20;0.10;;;;;;;;;;5124970;27;20186;-65
2024/04/04 06:11:07;;;;;;;0.20;0.10;;;;;;;;;;5126325;27;20204;-66
2024/04/04 06:13:33;;;;;;;0.20;0.10;;;;;;;;;;5124578;27;20225;-66
2024/04/04 06:16:03;;;;;;;0.20;0.10;;;;;;;;;;5125930;27;20677;-66
2024/04/04 06:18:29;;;;;;;0.20;0.10;;;;;;;;;;5123368;27;20173;-65
2024/04/04 06:20:55;;;;;;;0.20;0.10;;;;;;;;;;5124761;27;20205;-66
2024/04/04 06:23:21;;;;;;;0.20;0.10;;;;;;;;;;5124570;27;20200;-66
2024/04/04 06:25:47;;;;;;;0.20;0.00;;;;;;;;;;5123333;27;20177;-66
2024/04/04 06:28:13;;;;;;;0.20;0.10;;;;;;;;;;5125899;27;21450;-65
2024/04/04 06:30:39;;;;;;;0.20;0.10;;;;;;;;;;5125970;27;20196;-66
2024/04/04 06:33:06;;;;;;;0.20;0.10;;;;;;;;;;5126364;27;20283;-65
2024/04/04 06:35:32;;;;;;;0.20;0.10;;;;;;;;;;5121083;27;20740;-66
2024/04/04 06:37:58;;;;;;;0.20;0.10;;;;;;;;;;5125066;27;20199;-65
2024/04/04 06:40:24;;;;;;;0.20;0.10;;;;;;;;;;5117942;27;20188;-66
2024/04/04 06:42:50;;;;;;;0.20;0.10;;;;;;;;;;5123958;27;20651;-66
2024/04/04 06:45:16;;;;;;;0.20;0.10;;;;;;;;;;5107191;27;21395;-66
2024/04/04 06:47:42;;;;;;;0.20;0.10;;;;;;;;;;5124435;27;20177;-65
2024/04/04 06:50:09;;;;;;;0.20;0.10;;;;;;;;;;5125656;27;20181;-65
2024/04/04 06:52:35;;;;;;;0.20;0.10;;;;;;;;;;5123356;27;20232;-64
2024/04/04 06:55:01;;;;;;;0.20;0.10;;;;;;;;;;5125093;27;20556;-64
2024/04/04 06:57:27;;;;;;;0.20;0.10;;;;;;;;;;5126164;27;20176;-69
2024/04/04 06:59:54;;;;;;;0.20;0.10;;;;;;;;;;5106178;28;20252;-68
2024/04/04 07:02:20;;;;;;;0.20;0.10;;;;;;;;;;5124581;27;20201;-68
2024/04/04 07:04:46;;;;;;;0.20;0.10;;;;;;;;;;5126108;27;20524;-68
2024/04/04 07:07:12;;;;;;;0.20;0.10;;;;;;;;;;5124951;27;20253;-66
2024/04/04 07:09:38;;;;;;;0.20;0.00;;;;;;;;;;5105916;27;20531;-68
2024/04/04 07:12:05;;;;;;;0.20;0.10;;;;;;;;;;5125580;27;20292;-67
2024/04/04 07:14:30;;;;;;;0.20;0.10;;;;;;;;;;5121680;27;20176;-68
2024/04/04 07:16:57;;;;;;;0.20;0.10;;;;;;;;;;5126301;27;20180;-67
2024/04/04 07:19:22;;;;;;;0.20;0.10;;;;;;;;;;5130677;27;20185;-67
2024/04/04 07:21:49;;;;;;;0.20;0.10;;;;;;;;;;5125487;27;20226;-67
2024/04/04 07:24:16;;;;;;;0.20;0.10;;;;;;;;;;5125070;27;20177;-66
2024/04/04 07:26:48;;;;;;;0.20;0.10;;;;;;;;;;5124585;27;20177;-66
2024/04/04 07:29:14;;;;;;;0.20;0.00;;;;;;;;;;5126557;27;20172;-67
2024/04/04 07:31:40;;;;;;;0.20;0.10;;;;;;;;;;5136037;27;20205;-68
2024/04/04 07:34:06;;;;;;;0.20;0.10;;;;;;;;;;5130773;27;20193;-69
2024/04/04 07:36:32;;;;;;;0.20;0.10;;;;;;;;;;5128231;27;20257;-68
2024/04/04 07:38:58;;;;;;;0.20;0.10;;;;;;;;;;5129689;27;20172;-68
2024/04/04 07:41:24;;;;;;;0.20;0.10;;;;;;;;;;5128467;27;20529;-67
2024/04/04 07:43:50;;;;;;;0.20;0.10;;;;;;;;;;5134804;27;20180;-68
2024/04/04 07:46:16;;;;;;;0.20;0.10;;;;;;;;;;5130124;27;20652;-68
2024/04/04 07:48:44;;;;;;;0.20;0.10;;;;;;;;;;5128449;27;20183;-69
2024/04/04 07:51:10;;;;;;;0.20;0.10;;;;;;;;;;5134694;27;20233;-66
2024/04/04 07:53:36;;;;;;;0.20;0.10;;;;;;;;;;5127512;27;20272;-65
2024/04/04 07:56:02;;;;;;;0.20;0.10;;;;;;;;;;5130735;27;20177;-65
2024/04/04 07:58:28;;;;;;;0.20;0.10;;;;;;;;;;5109608;27;20311;-67
2024/04/04 08:00:54;;;;;;;0.20;0.10;;;;;;;;;;5127424;27;20287;-65
2024/04/04 08:03:21;;;;;;;0.20;0.10;;;;;;;;;;5128095;27;20575;-65
2024/04/04 08:05:47;;;;;;;0.20;0.10;;;;;;;;;;5126985;27;20185;-66
2024/04/04 08:08:13;;;;;;;0.20;0.10;;;;;;;;;;5127914;27;20648;-66
2024/04/04 08:10:39;;;;;;;0.20;0.10;;;;;;;;;;5127521;27;20173;-66
2024/04/04 08:13:06;;;;;;;0.20;0.10;;;;;;;;;;5131968;27;20197;-68
2024/04/04 08:15:32;;;;;;;0.20;0.10;;;;;;;;;;5132628;27;20184;-69
2024/04/04 08:17:58;;;;;;;0.20;0.10;;;;;;;;;;5136252;27;20190;-67
2024/04/04 08:20:24;;;;;;;0.20;0.10;;;;;;;;;;5128109;27;20476;-69
2024/04/04 08:22:51;;;;;;;0.20;0.10;;;;;;;;;;5108277;27;20211;-68
2024/04/04 08:25:19;;;;;;;0.20;0.10;;;;;;;;;;5129062;27;20188;-66
2024/04/04 08:27:45;;;;;;;0.20;0.10;;;;;;;;;;5128240;27;20520;-66
2024/04/04 08:30:11;;;;;;;0.20;0.10;;;;;;;;;;5129917;27;20176;-66
2024/04/04 08:32:38;;;;;;;0.20;0.10;;;;;;;;;;5121617;27;21062;-66
2024/04/04 08:35:06;;;;;;;0.20;0.10;;;;;;;;;;5128699;27;20253;-68
2024/04/04 08:37:33;;;;;;;0.20;0.10;;;;;;;;;;5130862;27;20213;-68
2024/04/04 08:39:59;;;;;;;0.20;0.10;;;;;;;;;;5129724;27;20843;-67
2024/04/04 08:42:26;;;;;;;0.20;0.10;;;;;;;;;;5127868;27;20216;-66
2024/04/04 08:44:53;;;;;;;0.20;0.10;;;;;;;;;;5126400;27;20720;-66
2024/04/04 08:47:19;;;;;;;0.20;0.00;;;;;;;;;;5132826;27;20179;-65
2024/04/04 08:49:47;;;;;;;0.20;0.10;;;;;;;;;;5128628;27;20169;-68
2024/04/04 08:52:14;;;;;;;0.20;0.10;;;;;;;;;;5126207;27;20225;-67
2024/04/04 08:54:41;;;;;;;0.20;0.10;;;;;;;;;;5141539;27;20233;-68
2024/04/04 08:57:08;;;;;;;0.20;0.10;;;;;;;;;;5131233;27;20228;-66
2024/04/04 08:59:34;;;;;;;0.20;0.10;;;;;;;;;;5126456;27;20214;-65
2024/04/04 09:02:00;;;;;;;0.20;0.10;;;;;;;;;;5131795;27;20208;-66
2024/04/04 09:04:27;;;;;;;0.20;0.10;;;;;;;;;;5129056;27;20176;-68
2024/04/04 09:06:54;;;;;;;0.20;0.10;;;;;;;;;;5127980;27;20590;-68
2024/04/04 09:09:20;;;;;;;0.20;0.10;;;;;;;;;;5134281;27;20208;-68
2024/04/04 09:11:46;;;;;;;0.20;0.10;;;;;;;;;;5128436;27;20224;-68
2024/04/04 09:14:12;;;;;;;0.20;0.10;;;;;;;;;;5127610;27;20238;-69
2024/04/04 09:16:39;;;;;;;0.20;0.10;;;;;;;;;;5127090;27;20268;-68
2024/04/04 09:19:11;;;;;;;0.20;0.10;;;;;;;;;;5130697;27;20183;-68
2024/04/04 09:21:38;;;;;;;0.20;0.10;;;;;;;;;;5122779;27;20239;-67
2024/04/04 09:24:05;;;;;;;0.20;0.10;;;;;;;;;;5127563;27;20974;-67
2024/04/04 09:26:31;;;;;;;0.20;0.10;;;;;;;;;;5129854;27;20173;-67
2024/04/04 09:28:58;;;;;;;0.20;0.10;;;;;;;;;;5129622;27;20267;-68
2024/04/04 09:31:29;;;;;;;0.20;0.10;;;;;;;;;;5127325;27;20188;-67
2024/04/04 09:33:58;;;;;;;0.20;0.10;;;;;;;;;;5127467;27;20180;-66
2024/04/04 09:36:29;;;;;;;0.20;0.17;;;;;;;;;;5127554;27;20184;-67
2024/04/04 09:38:56;;;;;;;0.20;0.10;;;;;;;;;;5127506;27;20177;-65
2024/04/04 09:41:22;;;;;;;0.20;0.03;;;;;;;;;;5128944;27;20694;-67
2024/04/04 09:43:55;;;;;;;0.20;0.10;;;;;;;;;;5131362;27;20173;-67
2024/04/04 09:46:21;;;;;;;0.20;0.10;;;;;;;;;;5125458;27;20176;-66
2024/04/04 09:48:48;;;;;;;0.20;0.10;;;;;;;;;;5125770;27;20177;-67
2024/04/04 09:51:14;;;;;;;0.20;0.10;;;;;;;;;;5122850;27;20196;-66
2024/04/04 09:53:40;;;;;;;0.20;0.10;;;;;;;;;;5112761;27;20185;-66
2024/04/04 09:56:08;;;;;;;0.20;0.10;;;;;;;;;;5124724;27;20208;-65
2024/04/04 09:58:34;;;;;;;0.20;0.10;;;;;;;;;;5134722;27;21031;-67
2024/04/04 10:01:20;;;;;;;0.20;0.10;;;;;;;;;;5131115;27;20173;-67
2024/04/04 10:03:55;;;;;;;0.20;0.10;;;;;;;;;;5135651;27;20780;-67
2024/04/04 10:06:36;;;;;;;0.20;0.10;;;;;;;;;;5125119;27;20189;-66
2024/04/04 10:09:14;;;;;;;0.20;0.10;;;;;;;;;;5128895;27;20544;-66
2024/04/04 10:11:41;;;;;;;0.20;0.10;;;;;;;;;;5128110;27;20203;-67
2024/04/04 10:14:13;;;;;;;0.20;0.10;;;;;;;;;;5132231;27;20267;-67
2024/04/04 10:16:39;;;;;;;0.20;0.10;;;;;;;;;;5131073;27;20179;-67
2024/04/04 10:19:11;;;;;;;0.20;0.10;;;;;;;;;;5134708;27;20180;-70
2024/04/04 10:21:37;;;;;;;0.20;0.10;;;;;;;;;;5124976;27;20287;-67
2024/04/04 10:24:04;;;;;;;0.20;0.10;;;;;;;;;;5136166;27;20168;-68
2024/04/04 10:26:30;;;;;;;0.20;0.10;;;;;;;;;;5131052;27;20169;-66
2024/04/04 10:28:56;;;;;;;0.20;0.10;;;;;;;;;;5130322;27;20185;-66
2024/04/04 10:31:23;;;;;;;0.20;0.10;;;;;;;;;;5130619;27;20201;-67
2024/04/04 10:33:49;;;;;;;0.20;0.10;;;;;;;;;;5125809;27;20184;-66
2024/04/04 10:36:15;;;;;;;0.20;0.10;;;;;;;;;;5127547;27;20172;-68
2024/04/04 10:38:40;;;;;;;0.20;0.10;;;;;;;;;;5125869;27;20177;-66
2024/04/04 10:41:08;;;;;;;0.20;0.10;;;;;;;;;;5126020;27;20201;-67
2024/04/04 10:43:40;;;;;;;0.20;0.10;;;;;;;;;;5125651;27;20203;-67
2024/04/04 10:46:06;;;;;;;0.20;0.10;;;;;;;;;;5125781;27;20188;-66
2024/04/04 10:48:32;;;;;;;0.20;0.10;;;;;;;;;;5125707;27;20165;-67
2024/04/04 10:50:58;;;;;;;0.20;0.10;;;;;;;;;;5125263;27;20772;-66
2024/04/04 10:53:24;;;;;;;0.20;0.10;;;;;;;;;;5125212;27;20568;-67
2024/04/04 10:55:50;;;;;;;0.20;0.10;;;;;;;;;;5125348;27;20185;-68
2024/04/04 10:58:16;;;;;;;0.20;0.10;;;;;;;;;;5134186;27;20676;-67
2024/04/04 11:00:42;;;;;;;0.20;0.10;;;;;;;;;;5140724;27;20254;-68
2024/04/04 11:03:12;;;;;;;0.20;0.10;;;;;;;;;;5125580;27;20201;-68
2024/04/04 11:05:38;;;;;;;0.20;0.10;;;;;;;;;;5112669;27;20177;-67
2024/04/04 11:08:06;;;;;;;0.20;0.10;;;;;;;;;;5140787;27;20191;-67
2024/04/04 11:10:32;;;;;;;0.20;0.10;;;;;;;;;;5131762;27;20196;-67
2024/04/04 11:12:58;;;;;;;0.20;0.10;;;;;;;;;;5129975;27;20223;-68
2024/04/04 11:15:26;;;;;;;0.20;0.10;;;;;;;;;;5134349;27;20185;-68
2024/04/04 11:17:52;;;;;;;0.20;0.10;;;;;;;;;;5133745;27;20229;-68
2024/04/04 11:20:19;;;;;;;0.20;0.10;;;;;;;;;;5110108;27;20173;-66
2024/04/04 11:22:45;;;;;;;0.20;0.10;;;;;;;;;;5130305;27;20860;-67
2024/04/04 11:25:11;;;;;;;0.20;0.10;;;;;;;;;;5135872;27;20759;-67
2024/04/04 11:27:38;;;;;;;0.20;0.10;;;;;;;;;;5133426;27;20180;-68
2024/04/04 11:30:04;;;;;;;0.20;0.10;;;;;;;;;;5133866;27;20584;-67
2024/04/04 11:32:30;;;;;;;0.20;0.10;;;;;;;;;;5132964;27;20192;-67
2024/04/04 11:34:57;;;;;;;0.20;0.10;;;;;;;;;;5136686;27;20222;-67
2024/04/04 11:37:25;;;;;;;0.20;0.10;;;;;;;;;;5114949;27;20663;-68
2024/04/04 11:39:52;;;;;;;0.20;0.10;;;;;;;;;;5133497;27;20863;-67
2024/04/04 11:42:18;;;;;;;0.20;0.10;;;;;;;;;;5135892;27;20755;-66
2024/04/04 11:44:44;;;;;;;0.20;0.10;;;;;;;;;;5137234;27;20221;-66
2024/04/04 11:47:11;;;;;;;0.20;0.10;;;;;;;;;;5139187;27;20188;-67
2024/04/04 11:49:37;;;;;;;0.20;0.10;;;;;;;;;;5137097;27;20169;-67
2024/04/04 11:52:03;;;;;;;0.20;0.10;;;;;;;;;;5128802;27;20203;-67
2024/04/04 11:54:30;;;;;;;0.20;0.10;;;;;;;;;;5129965;27;20181;-66
2024/04/04 11:56:56;;;;;;;0.20;0.00;;;;;;;;;;5129836;27;20242;-66
2024/04/04 11:59:22;;;;;;;0.20;0.10;;;;;;;;;;5127486;27;20648;-66
2024/04/04 12:01:48;;;;;;;0.20;0.10;;;;;;;;;;5119911;27;20240;-66
2024/04/04 12:04:14;;;;;;;0.20;0.10;;;;;;;;;;5137420;27;20176;-65
2024/04/04 12:06:40;;;;;;;0.20;0.10;;;;;;;;;;5130710;27;20181;-67
2024/04/04 12:09:09;;;;;;;0.20;0.10;;;;;;;;;;5129745;27;20528;-68
2024/04/04 12:11:36;;;;;;;0.20;0.10;;;;;;;;;;5128280;27;20189;-67
2024/04/04 12:14:02;;;;;;;0.20;0.10;;;;;;;;;;5111972;27;20195;-67
2024/04/04 12:16:31;;;;;;;0.20;0.10;;;;;;;;;;5131509;27;20203;-69
2024/04/04 12:21:42;;;;;;;0.20;0.10;;;;;;;;;;5131601;27;20597;-68
2024/04/04 12:24:09;;;;;;;0.20;0.10;;;;;;;;;;5107358;27;20161;-68
2024/04/04 12:26:35;;;;;;;0.20;0.10;;;;;;;;;;5129500;27;20169;-68
2024/04/04 12:29:01;;;;;;;0.20;0.10;;;;;;;;;;5130455;27;20175;-67
2024/04/04 12:31:28;;;;;;;0.20;0.10;;;;;;;;;;5130198;27;20181;-70
2024/04/04 12:33:54;;;;;;;0.20;0.10;;;;;;;;;;5135458;27;20181;-68
2024/04/04 12:36:20;;;;;;;0.20;0.10;;;;;;;;;;5137875;27;20247;-69
2024/04/04 12:38:46;;;;;;;0.20;0.10;;;;;;;;;;5133040;27;20172;-69
2024/04/04 12:41:12;;;;;;;0.20;0.10;;;;;;;;;;5136514;27;20204;-69
2024/04/04 12:43:38;;;;;;;0.20;0.10;;;;;;;;;;5132531;27;20200;-69
2024/04/04 12:46:04;;;;;;;0.20;0.10;;;;;;;;;;5130616;27;20181;-70
2024/04/04 12:48:31;;;;;;;0.20;0.10;;;;;;;;;;5130727;27;20210;-69
2024/04/04 12:50:57;;;;;;;0.20;0.10;;;;;;;;;;5127591;27;20859;-69
2024/04/04 12:53:24;;;;;;;0.20;0.10;;;;;;;;;;5129844;27;20520;-68
2024/04/04 12:55:50;;;;;;;0.20;0.10;;;;;;;;;;5109771;27;20193;-71
2024/04/04 12:58:16;;;;;;;0.20;0.10;;;;;;;;;;5130431;27;20185;-69
2024/04/04 13:00:43;;;;;;;0.20;0.10;;;;;;;;;;5132996;27;20180;-68
2024/04/04 13:03:09;;;;;;;0.20;0.10;;;;;;;;;;5123319;27;20215;-69
2024/04/04 13:05:35;;;;;;;0.20;0.10;;;;;;;;;;5130286;27;20598;-69
2024/04/04 13:08:02;;;;;;;0.20;0.10;;;;;;;;;;5130326;27;20176;-69
2024/04/04 13:10:28;;;;;;;0.20;0.10;;;;;;;;;;5130624;27;20173;-69
2024/04/04 13:12:54;;;;;;;0.20;0.10;;;;;;;;;;5130177;27;20216;-68
2024/04/04 13:15:20;;;;;;;0.20;0.10;;;;;;;;;;5129890;27;20646;-68
2024/04/04 13:17:46;;;;;;;0.20;0.10;;;;;;;;;;5130063;27;20183;-69
2024/04/04 13:20:12;;;;;;;0.20;0.10;;;;;;;;;;5130700;27;20177;-68
2024/04/04 13:22:38;;;;;;;0.20;0.10;;;;;;;;;;5128977;27;20707;-67
2024/04/04 13:25:05;;;;;;;0.20;0.10;;;;;;;;;;5130388;27;20180;-68
2024/04/04 13:27:31;;;;;;;0.20;0.10;;;;;;;;;;5129466;27;20534;-69
2024/04/04 13:29:57;;;;;;;0.20;0.10;;;;;;;;;;5131649;27;20276;-69
2024/04/04 13:32:23;;;;;;;0.20;0.10;;;;;;;;;;5114430;27;20204;-67
2024/04/04 13:34:49;;;;;;;0.20;0.10;;;;;;;;;;5133676;27;20581;-67
2024/04/04 13:37:16;;;;;;;0.20;0.10;;;;;;;;;;5114961;27;20520;-67
2024/04/04 13:39:42;;;;;;;0.20;0.10;;;;;;;;;;5124715;27;20181;-68
2024/04/04 13:42:09;;;;;;;0.20;0.10;;;;;;;;;;5127895;27;20220;-68
2024/04/04 13:44:35;;;;;;;0.20;0.10;;;;;;;;;;5129158;27;20172;-66
2024/04/04 13:47:01;;;;;;;0.20;0.10;;;;;;;;;;5129917;27;20243;-67
2024/04/04 13:49:27;;;;;;;0.20;0.10;;;;;;;;;;5112387;27;20237;-67
2024/04/04 13:51:59;;;;;;;0.20;0.10;;;;;;;;;;5129674;27;20688;-68
2024/04/04 13:54:26;;;;;;;0.20;0.10;;;;;;;;;;5130751;27;20280;-67
2024/04/04 13:56:55;;;;;;;0.20;0.10;;;;;;;;;;5130469;27;20177;-68
2024/04/04 13:59:21;;;;;;;0.20;0.10;;;;;;;;;;5128806;27;20189;-68
2024/04/04 14:01:48;;;;;;;0.20;0.10;;;;;;;;;;5118784;27;20575;-67
2024/04/04 14:04:14;;;;;;;0.20;0.10;;;;;;;;;;5126290;27;20195;-67
2024/04/04 14:06:41;;;;;;;0.20;0.10;;;;;;;;;;5125579;27;20192;-68
2024/04/04 14:09:07;;;;;;;0.20;0.10;;;;;;;;;;5136398;27;20652;-68
2024/04/04 14:11:34;;;;;;;0.20;0.10;;;;;;;;;;5126528;27;20196;-68
2024/04/04 14:14:01;;;;;;;0.20;0.10;;;;;;;;;;5128477;27;20184;-67
2024/04/04 14:16:27;;;;;;;0.20;0.10;;;;;;;;;;5124535;27;20183;-68
2024/04/04 14:18:53;;;;;;;0.20;0.05;;;;;;;;;;5126683;27;20172;-69
2024/04/04 14:21:19;;;;;;;0.20;0.10;;;;;;;;;;5130096;27;20809;-69
2024/04/04 14:23:45;;;;;;;0.20;0.10;;;;;;;;;;5131505;27;20296;-67
2024/04/04 14:26:13;;;;;;;0.20;0.10;;;;;;;;;;5126057;27;20285;-67
2024/04/04 14:28:40;;;;;;;0.20;0.10;;;;;;;;;;5127420;27;20177;-69
2024/04/04 14:31:06;;;;;;;0.20;0.10;;;;;;;;;;5126081;27;21024;-69
2024/04/04 14:33:32;;;;;;;0.20;0.10;;;;;;;;;;5123189;27;20177;-69
2024/04/04 14:35:58;;;;;;;0.20;0.10;;;;;;;;;;5129384;27;20184;-68
2024/04/04 14:38:24;;;;;;;0.20;0.10;;;;;;;;;;5130236;27;20190;-70
2024/04/04 14:40:50;;;;;;;0.20;0.10;;;;;;;;;;5128219;27;20186;-67